Chilcoot, CA (96105)

1:54 AM PDT on September 23, 2014 (GMT -0700)
Main Street Loyalton | Change Station
CLOSE
Current Station
Personal Weather Station
Location: Loyalton, CA
Elevation: 4964 ft
Nearby Weather Stations

Elev 4964 ft 39.68 °N, 120.24 °W | Updated 8 seconds ago

Partly Cloudy
Partly Cloudy
47.0 °F
Feels Like 47 °F
N
0.0
Wind Variable Wind from NE
Gusts 0.0 mph

Today
High -- | Low -- °F
--% Chance of Precip.
Yesterday
High -- | Low -- °F
Precip. -- in
6:49 AM 6:56 PM
Waning Crescent, 1% visible
Pressure 30.13 in
Visibility 7.0 miles
Clouds Clear
Windchill 47 °F
Dew Point 40 °F
Humidity 78%
Rainfall 0.00 in
Snow Depth Not available.
UV 0 out of 12
Pollen 6.70 out of 12
Air Quality Not available.
Flu Activity Not available.
METAR KRTS 230835Z AUTO 12005KT 7SM CLR 13/03 A3013 RMK AO2

More Conditions Fewer Conditions

Pressure 30.13 in
Visibility 7.0 miles
Clouds Clear
Windchill 47 °F
Dew Point 40 °F
Humidity 78%
Rainfall 0.00 in
Snow Depth Not available.
UV 0 out of 12
Pollen 6.70 out of 12
Air Quality Not available.
Flu Activity Not available.
METAR KRTS 230835Z AUTO 12005KT 7SM CLR 13/03 A3013 RMK AO2

More Conditions Fewer Conditions

10-Day Weather Forecast

Almanac

Astronomy

Sep. 23, 2014 Rise Set
Actual Time 6:49 AM PDT 6:56 PM PDT
Civil Twilight 6:22 AM PDT 7:23 PM PDT
Nautical Twilight 5:51 AM PDT 7:54 PM PDT
Astronomical Twilight 5:18 AM PDT 8:26 PM PDT
Moon 6:18 AM PDT 6:37 PM PDT
Length of Visible Light 13h 00m
Length of Day
12h 06m
Tomorrow will be 2m 35s shorter.
Waning Crescent, 1% of the Moon is Illuminated
Today
Waning Crescent
Sep 24
New
Oct 1
First Quarter
Oct 8
Full
Oct 15
Last Quarter

Today's Extremes

State Highs State Lows

Community

WunderPhotos

Upload Photos

1,755,644 photos uploaded!

Nearby

Snow Depth

Station Depth Elevation
Spratt Creek 0 in 6200 ft
Adin Mountain 0 in 6200 ft
Heavenly Valley 0 in 8850 ft
Tahoe City Cross 0 in 6750 ft
Squaw Valley 0 in 8200 ft

Earthquake Activity

City Distance Mag. Time & Date
No recent earthquake activity has been reported nearby.
Minimum magnitude displayed is 2.5.

Coastal Water Temperatures

Place Temperature
No Stations Reporting

Nearby Weather Stations